Time;durP1;ratioP1;P1;durP2;ratioP2;P2;SDS_P1;SDS_P2;PMS_P1;PMS_P2;Temp;Humidity;BMP_temperature;BMP_pressure;BME280_temperature;BME280_humidity;BME280_pressure;Samples;Min_cycle;Max_cycle;Signal;HPM_P1;HPM_P2
2023/08/30 00:01:23;;;;;;;11.07;6.43;;;;;;;;;;4996892;28;20113;-87
2023/08/30 00:03:51;;;;;;;9.13;6.07;;;;;;;;;;4996255;28;20054;-87
2023/08/30 00:06:18;;;;;;;9.02;6.30;;;;;;;;;;4979694;28;20157;-87
2023/08/30 00:08:46;;;;;;;6.63;6.10;;;;;;;;;;4979448;28;20077;-87
2023/08/30 00:11:14;;;;;;;6.55;5.90;;;;;;;;;;4995902;28;20086;-87
2023/08/30 00:13:42;;;;;;;10.75;7.88;;;;;;;;;;4979745;28;20058;-87
2023/08/30 00:16:09;;;;;;;7.78;7.05;;;;;;;;;;4979207;28;20081;-87
2023/08/30 00:18:37;;;;;;;6.05;5.63;;;;;;;;;;4979453;28;20050;-88
2023/08/30 00:21:04;;;;;;;8.45;5.43;;;;;;;;;;4979673;28;20078;-88
2023/08/30 00:23:31;;;;;;;6.03;5.32;;;;;;;;;;4996385;28;20054;-87
2023/08/30 00:25:58;;;;;;;6.32;5.20;;;;;;;;;;4996540;28;20065;-87
2023/08/30 00:28:26;;;;;;;6.43;4.68;;;;;;;;;;4996360;28;20517;-87
2023/08/30 00:30:54;;;;;;;4.30;3.97;;;;;;;;;;4996096;28;20089;-88
2023/08/30 00:33:22;;;;;;;4.70;3.88;;;;;;;;;;4996248;28;20487;-87
2023/08/30 00:35:56;;;;;;;4.32;4.00;;;;;;;;;;4978995;28;20047;-87
2023/08/30 00:38:23;;;;;;;4.20;3.90;;;;;;;;;;4996530;28;20112;-88
2023/08/30 00:40:50;;;;;;;4.28;3.95;;;;;;;;;;4979081;28;20046;-87
2023/08/30 00:43:18;;;;;;;4.03;3.72;;;;;;;;;;4995833;28;20105;-88
2023/08/30 00:45:45;;;;;;;6.25;4.35;;;;;;;;;;4978609;28;20058;-87
2023/08/30 00:48:12;;;;;;;4.78;4.38;;;;;;;;;;4978872;28;20089;-86
2023/08/30 00:50:40;;;;;;;7.72;4.03;;;;;;;;;;4995805;28;20173;-87
2023/08/30 00:53:08;;;;;;;5.15;4.05;;;;;;;;;;4978611;28;20170;-88
2023/08/30 00:55:35;;;;;;;9.90;3.88;;;;;;;;;;4978397;28;20058;-88
2023/08/30 00:58:03;;;;;;;5.05;3.95;;;;;;;;;;4978504;28;20100;-86
2023/08/30 01:00:31;;;;;;;4.20;3.58;;;;;;;;;;4978550;28;20419;-87
2023/08/30 01:02:58;;;;;;;5.13;3.65;;;;;;;;;;4995572;28;20644;-87
2023/08/30 01:05:26;;;;;;;3.97;3.60;;;;;;;;;;4995476;28;20140;-87
2023/08/30 01:07:53;;;;;;;5.93;3.50;;;;;;;;;;4978373;28;20050;-87
2023/08/30 01:10:25;;;;;;;6.95;3.90;;;;;;;;;;4978585;28;20101;-87
2023/08/30 01:12:54;;;;;;;5.53;3.90;;;;;;;;;;4995515;28;20100;-87
2023/08/30 01:15:23;;;;;;;9.30;4.32;;;;;;;;;;4978185;28;20054;-87
2023/08/30 01:17:52;;;;;;;5.18;4.50;;;;;;;;;;4978342;28;20047;-87
2023/08/30 01:20:24;;;;;;;6.50;4.38;;;;;;;;;;4978257;28;20505;-87
2023/08/30 01:23:05;;;;;;;6.18;3.75;;;;;;;;;;4977264;28;20081;-87
2023/08/30 01:25:46;;;;;;;4.57;4.35;;;;;;;;;;4978086;28;20050;-87
2023/08/30 01:28:15;;;;;;;5.97;5.47;;;;;;;;;;4978566;28;20054;-87
2023/08/30 01:30:44;;;;;;;8.20;5.82;;;;;;;;;;4978271;28;20124;-87
2023/08/30 01:33:13;;;;;;;9.95;7.63;;;;;;;;;;4978063;28;20046;-87
2023/08/30 01:35:41;;;;;;;8.50;6.80;;;;;;;;;;4994710;28;20070;-87
2023/08/30 01:38:08;;;;;;;6.22;5.55;;;;;;;;;;4995058;28;20120;-88
2023/08/30 01:40:38;;;;;;;12.13;6.78;;;;;;;;;;4978030;28;20061;-87
2023/08/30 01:43:07;;;;;;;7.18;6.22;;;;;;;;;;4978039;28;20058;-87
2023/08/30 01:45:36;;;;;;;6.28;5.88;;;;;;;;;;4977534;28;20058;-87
2023/08/30 01:48:05;;;;;;;7.50;6.85;;;;;;;;;;4977807;28;20042;-87
2023/08/30 01:50:33;;;;;;;7.13;6.25;;;;;;;;;;4977602;28;20144;-87
2023/08/30 01:53:01;;;;;;;7.20;6.50;;;;;;;;;;4994787;28;20089;-87
2023/08/30 01:55:29;;;;;;;12.93;6.82;;;;;;;;;;4977494;28;20050;-87
2023/08/30 01:57:56;;;;;;;7.32;6.50;;;;;;;;;;4994750;28;20125;-87
2023/08/30 02:00:23;;;;;;;8.73;5.10;;;;;;;;;;4977171;28;20061;-87
2023/08/30 02:02:51;;;;;;;5.85;4.63;;;;;;;;;;4994369;28;20395;-87
2023/08/30 02:05:18;;;;;;;4.60;3.95;;;;;;;;;;4977275;28;20046;-87
2023/08/30 02:07:54;;;;;;;4.20;3.90;;;;;;;;;;4976955;28;20471;-87
2023/08/30 02:10:29;;;;;;;4.75;4.30;;;;;;;;;;4994379;28;20388;-87
2023/08/30 02:12:58;;;;;;;4.22;3.40;;;;;;;;;;4976970;28;20050;-88
2023/08/30 02:15:26;;;;;;;4.45;3.80;;;;;;;;;;4977013;28;20062;-87
2023/08/30 02:17:54;;;;;;;4.80;4.40;;;;;;;;;;4976905;28;20474;-87
2023/08/30 02:20:22;;;;;;;4.32;4.03;;;;;;;;;;4993823;28;20046;-87
2023/08/30 02:22:49;;;;;;;4.88;3.70;;;;;;;;;;4976994;28;20058;-87
2023/08/30 02:25:17;;;;;;;4.22;3.80;;;;;;;;;;4976548;28;20061;-87
2023/08/30 02:27:44;;;;;;;4.80;4.40;;;;;;;;;;4976450;28;20054;-88
2023/08/30 02:30:11;;;;;;;4.22;3.80;;;;;;;;;;4994012;28;20051;-88
2023/08/30 02:32:38;;;;;;;4.15;3.80;;;;;;;;;;4976648;28;20483;-87
2023/08/30 02:35:06;;;;;;;4.35;4.00;;;;;;;;;;4976381;28;20125;-87
2023/08/30 02:37:33;;;;;;;5.10;3.72;;;;;;;;;;4976377;28;20499;-87
2023/08/30 02:40:01;;;;;;;5.93;4.60;;;;;;;;;;4976625;28;20144;-86
2023/08/30 02:42:28;;;;;;;4.25;4.00;;;;;;;;;;4976580;28;20467;-88
2023/08/30 02:44:55;;;;;;;5.28;4.88;;;;;;;;;;4976847;28;20054;-87
2023/08/30 02:47:22;;;;;;;6.40;4.50;;;;;;;;;;4976744;28;20105;-87
2023/08/30 02:49:50;;;;;;;4.28;3.97;;;;;;;;;;4977133;28;20050;-87
2023/08/30 02:52:18;;;;;;;4.35;4.05;;;;;;;;;;4993823;28;20058;-87
2023/08/30 02:54:45;;;;;;;4.80;4.47;;;;;;;;;;4977231;28;20058;-87
2023/08/30 02:57:12;;;;;;;5.07;4.53;;;;;;;;;;4978469;28;20466;-87
2023/08/30 02:59:39;;;;;;;3.88;3.67;;;;;;;;;;4995448;28;20116;-87
2023/08/30 03:02:09;;;;;;;4.05;3.85;;;;;;;;;;4994020;28;20078;-87
2023/08/30 03:04:38;;;;;;;4.80;4.40;;;;;;;;;;4976316;28;20133;-87
2023/08/30 03:07:05;;;;;;;3.65;3.45;;;;;;;;;;4976343;28;20050;-87
2023/08/30 03:09:33;;;;;;;4.40;3.83;;;;;;;;;;4976602;28;20085;-87
2023/08/30 03:12:00;;;;;;;4.00;3.58;;;;;;;;;;4976292;28;20046;-87
2023/08/30 03:14:27;;;;;;;4.53;3.42;;;;;;;;;;4976462;28;20050;-87
2023/08/30 03:16:55;;;;;;;5.72;3.72;;;;;;;;;;4976446;28;20101;-87
2023/08/30 03:19:22;;;;;;;5.00;3.60;;;;;;;;;;4976339;28;20137;-87
2023/08/30 03:21:49;;;;;;;3.88;3.58;;;;;;;;;;4993335;28;20050;-87
2023/08/30 03:24:17;;;;;;;5.20;4.70;;;;;;;;;;4976265;28;20138;-87
2023/08/30 03:26:44;;;;;;;4.47;4.18;;;;;;;;;;4993267;28;20080;-87
2023/08/30 03:29:11;;;;;;;3.80;3.58;;;;;;;;;;4975319;28;20053;-86
2023/08/30 03:31:39;;;;;;;4.00;3.70;;;;;;;;;;4976174;28;20046;-87
2023/08/30 03:34:06;;;;;;;4.15;3.50;;;;;;;;;;4976012;28;20552;-86
2023/08/30 03:36:35;;;;;;;3.50;3.22;;;;;;;;;;4976487;28;20050;-87
2023/08/30 03:39:05;;;;;;;5.53;4.30;;;;;;;;;;4976595;28;20046;-87
2023/08/30 03:41:32;;;;;;;4.25;3.83;;;;;;;;;;4976408;28;20069;-88
2023/08/30 03:43:59;;;;;;;4.53;3.75;;;;;;;;;;4976018;28;20065;-86
2023/08/30 03:46:27;;;;;;;3.85;3.65;;;;;;;;;;4976492;28;20050;-87
2023/08/30 03:48:54;;;;;;;5.55;3.78;;;;;;;;;;4979796;28;20050;-87
2023/08/30 03:51:21;;;;;;;6.00;3.80;;;;;;;;;;4979710;28;20101;-87
2023/08/30 03:53:48;;;;;;;3.97;3.67;;;;;;;;;;4979643;28;20650;-87
2023/08/30 03:56:15;;;;;;;4.15;3.40;;;;;;;;;;4979898;28;20047;-87
2023/08/30 03:58:43;;;;;;;5.30;3.50;;;;;;;;;;4979576;28;20080;-87
2023/08/30 04:01:10;;;;;;;5.43;3.88;;;;;;;;;;4978928;28;20042;-87
2023/08/30 04:03:37;;;;;;;3.65;3.45;;;;;;;;;;4979309;28;20062;-87
2023/08/30 04:06:05;;;;;;;7.47;3.30;;;;;;;;;;4978994;28;20137;-87
2023/08/30 04:08:32;;;;;;;6.50;3.65;;;;;;;;;;4979441;28;20137;-87
2023/08/30 04:11:00;;;;;;;4.82;4.45;;;;;;;;;;4979993;28;20046;-86
2023/08/30 04:13:27;;;;;;;5.00;3.50;;;;;;;;;;4979180;28;20058;-86
2023/08/30 04:15:56;;;;;;;3.20;3.05;;;;;;;;;;4979054;28;20073;-87
2023/08/30 04:18:23;;;;;;;3.45;3.25;;;;;;;;;;4979274;28;20046;-87
2023/08/30 04:20:50;;;;;;;3.45;3.25;;;;;;;;;;4978889;28;20054;-87
2023/08/30 04:23:18;;;;;;;3.60;3.35;;;;;;;;;;4979055;28;20042;-86
2023/08/30 04:25:45;;;;;;;3.38;3.10;;;;;;;;;;4995874;28;20050;-87
2023/08/30 04:28:12;;;;;;;3.35;3.03;;;;;;;;;;4979010;28;20093;-87
2023/08/30 04:30:40;;;;;;;4.72;3.03;;;;;;;;;;4979166;28;20065;-86
2023/08/30 04:33:07;;;;;;;3.58;3.28;;;;;;;;;;4978961;28;20050;-87
2023/08/30 04:35:35;;;;;;;6.75;3.70;;;;;;;;;;4978897;28;20054;-87
2023/08/30 04:38:03;;;;;;;3.85;3.45;;;;;;;;;;4978905;28;20414;-86
2023/08/30 04:40:30;;;;;;;3.55;3.17;;;;;;;;;;4978899;28;20141;-87
2023/08/30 04:43:01;;;;;;;5.53;4.57;;;;;;;;;;4978374;28;20054;-87
2023/08/30 04:45:29;;;;;;;7.20;3.70;;;;;;;;;;4978556;28;20047;-87
2023/08/30 04:47:57;;;;;;;11.95;5.30;;;;;;;;;;4978763;28;20105;-87
2023/08/30 04:50:24;;;;;;;13.73;7.05;;;;;;;;;;4978682;28;20058;-87
2023/08/30 04:52:51;;;;;;;9.65;7.10;;;;;;;;;;4978896;28;20046;-87
2023/08/30 04:55:19;;;;;;;8.00;5.32;;;;;;;;;;4978503;28;20498;-87
2023/08/30 04:57:47;;;;;;;4.20;3.90;;;;;;;;;;4978220;28;20101;-86
2023/08/30 05:00:15;;;;;;;4.72;4.20;;;;;;;;;;4978235;28;20073;-86
2023/08/30 05:02:43;;;;;;;4.25;3.85;;;;;;;;;;4978347;28;20118;-87
2023/08/30 05:05:11;;;;;;;5.80;5.25;;;;;;;;;;4978145;28;20133;-87
2023/08/30 05:07:38;;;;;;;32.53;20.35;;;;;;;;;;4978050;28;20054;-88
2023/08/30 05:10:06;;;;;;;33.85;22.08;;;;;;;;;;4978277;28;20149;-87
2023/08/30 05:12:36;;;;;;;28.75;17.98;;;;;;;;;;4978105;28;20047;-87
2023/08/30 05:15:04;;;;;;;10.85;9.32;;;;;;;;;;4977992;28;20097;-87
2023/08/30 05:17:32;;;;;;;8.65;7.13;;;;;;;;;;4977893;28;20046;-87
2023/08/30 05:20:00;;;;;;;4.90;4.50;;;;;;;;;;4978176;28;20050;-87
2023/08/30 05:22:27;;;;;;;5.45;4.82;;;;;;;;;;4977848;28;20042;-87
2023/08/30 05:24:55;;;;;;;6.18;5.53;;;;;;;;;;4977688;28;20510;-87
2023/08/30 05:27:22;;;;;;;8.98;7.72;;;;;;;;;;4977772;28;20077;-87
2023/08/30 05:29:50;;;;;;;8.38;7.00;;;;;;;;;;4977879;28;20384;-87
2023/08/30 05:32:17;;;;;;;6.30;5.63;;;;;;;;;;4977424;28;20053;-87
2023/08/30 05:34:44;;;;;;;7.45;6.82;;;;;;;;;;4977579;28;20183;-87
2023/08/30 05:37:11;;;;;;;4.75;4.28;;;;;;;;;;4977566;28;20112;-87
2023/08/30 05:39:39;;;;;;;5.05;3.90;;;;;;;;;;4977729;28;20050;-88
2023/08/30 05:42:06;;;;;;;3.72;3.38;;;;;;;;;;4994698;28;20419;-87
2023/08/30 05:44:33;;;;;;;6.50;3.67;;;;;;;;;;4977916;28;20046;-87
2023/08/30 05:47:01;;;;;;;5.13;3.60;;;;;;;;;;4977753;28;20065;-87
2023/08/30 05:49:28;;;;;;;7.85;5.47;;;;;;;;;;4999420;28;20042;-87
2023/08/30 05:51:55;;;;;;;6.95;5.50;;;;;;;;;;4981656;28;20050;-87
2023/08/30 05:54:29;;;;;;;14.50;10.05;;;;;;;;;;4995853;28;20047;-87
2023/08/30 05:56:56;;;;;;;16.63;12.20;;;;;;;;;;4978123;28;20054;-87
2023/08/30 05:59:24;;;;;;;17.42;12.00;;;;;;;;;;4977575;28;20050;-87
2023/08/30 06:01:51;;;;;;;20.58;11.30;;;;;;;;;;4977479;28;20051;-87
2023/08/30 06:04:19;;;;;;;16.25;11.48;;;;;;;;;;4976924;28;20057;-87
2023/08/30 06:06:46;;;;;;;19.05;12.70;;;;;;;;;;4977036;28;20108;-87
2023/08/30 06:09:14;;;;;;;10.40;6.85;;;;;;;;;;4976634;28;20549;-87
2023/08/30 06:11:41;;;;;;;3.22;3.03;;;;;;;;;;4977592;28;20050;-87
2023/08/30 06:14:08;;;;;;;3.33;2.17;;;;;;;;;;4994788;28;20047;-86
2023/08/30 06:16:36;;;;;;;8.82;2.20;;;;;;;;;;4978895;28;20104;-87
2023/08/30 06:19:03;;;;;;;3.85;2.38;;;;;;;;;;4977722;28;20054;-87
2023/08/30 06:21:31;;;;;;;2.83;1.95;;;;;;;;;;4976885;28;20076;-87
2023/08/30 06:23:58;;;;;;;6.70;2.72;;;;;;;;;;4994248;28;20360;-86
2023/08/30 06:26:25;;;;;;;2.78;2.58;;;;;;;;;;4976757;28;20485;-86
2023/08/30 06:28:52;;;;;;;9.27;2.50;;;;;;;;;;4976929;28;20073;-86
2023/08/30 06:31:23;;;;;;;2.38;2.22;;;;;;;;;;4977383;28;20109;-87
2023/08/30 06:33:50;;;;;;;4.35;3.95;;;;;;;;;;4976738;28;20046;-87
2023/08/30 06:36:18;;;;;;;5.82;4.03;;;;;;;;;;4976689;28;20404;-86
2023/08/30 06:38:45;;;;;;;10.27;6.57;;;;;;;;;;4976622;28;20078;-86
2023/08/30 06:41:12;;;;;;;13.77;7.50;;;;;;;;;;4976725;28;20151;-86
2023/08/30 06:43:39;;;;;;;13.52;7.15;;;;;;;;;;4976294;28;20144;-86
2023/08/30 06:46:07;;;;;;;12.98;5.28;;;;;;;;;;4976392;28;20054;-87
2023/08/30 06:48:34;;;;;;;3.75;2.40;;;;;;;;;;4976972;28;20294;-87
2023/08/30 06:51:01;;;;;;;4.15;1.63;;;;;;;;;;4976604;28;20564;-86
2023/08/30 06:53:29;;;;;;;3.95;1.60;;;;;;;;;;4976590;28;20101;-86
2023/08/30 06:55:59;;;;;;;13.48;4.07;;;;;;;;;;4976575;28;20074;-85
2023/08/30 06:58:27;;;;;;;8.73;4.55;;;;;;;;;;4976023;28;20061;-86
2023/08/30 07:00:54;;;;;;;8.23;3.88;;;;;;;;;;4976451;28;20403;-86
2023/08/30 07:03:21;;;;;;;12.57;5.40;;;;;;;;;;4976305;28;20053;-85
2023/08/30 07:05:51;;;;;;;15.30;5.60;;;;;;;;;;4976148;28;20050;-85
2023/08/30 07:08:18;;;;;;;11.77;4.80;;;;;;;;;;4976422;28;20050;-85
2023/08/30 07:10:46;;;;;;;22.67;6.57;;;;;;;;;;4979728;28;20114;-86
2023/08/30 07:13:13;;;;;;;12.70;5.30;;;;;;;;;;4976211;28;20110;-85
2023/08/30 07:15:41;;;;;;;21.35;5.93;;;;;;;;;;4975893;28;20054;-85
2023/08/30 07:18:09;;;;;;;17.52;5.72;;;;;;;;;;4976165;28;20391;-87
2023/08/30 07:20:39;;;;;;;14.07;3.30;;;;;;;;;;4977240;28;20062;-86
2023/08/30 07:23:06;;;;;;;8.35;2.97;;;;;;;;;;4979819;28;20050;-85
2023/08/30 07:25:37;;;;;;;4.43;1.63;;;;;;;;;;4996921;28;20092;-86
2023/08/30 07:28:05;;;;;;;11.13;2.60;;;;;;;;;;4979413;28;20051;-85
2023/08/30 07:30:34;;;;;;;8.65;2.78;;;;;;;;;;4980008;28;20474;-86
2023/08/30 07:33:03;;;;;;;8.93;2.80;;;;;;;;;;4979389;28;20601;-86
2023/08/30 07:35:32;;;;;;;5.28;1.80;;;;;;;;;;4979069;28;20061;-85
2023/08/30 07:37:59;;;;;;;7.47;1.75;;;;;;;;;;4979486;28;20061;-86
2023/08/30 07:40:28;;;;;;;7.25;1.33;;;;;;;;;;4979533;28;20451;-86
2023/08/30 07:42:56;;;;;;;4.68;1.90;;;;;;;;;;4979055;28;20063;-86
2023/08/30 07:45:26;;;;;;;6.15;2.15;;;;;;;;;;4979708;28;20093;-86
2023/08/30 07:47:53;;;;;;;8.98;2.10;;;;;;;;;;4979489;28;20085;-87
2023/08/30 07:50:21;;;;;;;4.78;2.20;;;;;;;;;;4979378;28;20054;-86
2023/08/30 07:52:48;;;;;;;5.50;2.05;;;;;;;;;;4979637;28;20351;-86
2023/08/30 07:55:16;;;;;;;10.45;2.67;;;;;;;;;;4979813;28;20042;-86
2023/08/30 07:57:43;;;;;;;10.70;2.40;;;;;;;;;;4979331;28;20108;-87
2023/08/30 08:00:11;;;;;;;6.20;1.50;;;;;;;;;;4979602;28;20047;-88
2023/08/30 08:02:38;;;;;;;7.90;2.00;;;;;;;;;;4979238;28;20495;-87
2023/08/30 08:05:05;;;;;;;11.65;2.25;;;;;;;;;;4979244;28;20047;-85
2023/08/30 08:07:32;;;;;;;6.72;1.80;;;;;;;;;;4979422;28;20399;-89
2023/08/30 08:10:00;;;;;;;7.00;2.42;;;;;;;;;;4979240;28;20561;-88
2023/08/30 08:12:27;;;;;;;4.60;1.50;;;;;;;;;;4979075;28;20050;-88
2023/08/30 08:14:54;;;;;;;2.42;1.20;;;;;;;;;;4979182;28;20046;-87
2023/08/30 08:17:22;;;;;;;3.15;1.50;;;;;;;;;;4995966;28;20050;-86
2023/08/30 08:19:49;;;;;;;2.20;1.13;;;;;;;;;;4996227;28;20046;-88
2023/08/30 08:22:16;;;;;;;1.50;0.90;;;;;;;;;;4979249;28;20050;-88
2023/08/30 08:24:45;;;;;;;4.30;1.00;;;;;;;;;;4996487;28;20113;-87
2023/08/30 08:27:14;;;;;;;1.42;0.60;;;;;;;;;;4978725;28;20050;-87
2023/08/30 08:29:41;;;;;;;1.02;0.63;;;;;;;;;;4978980;28;20379;-87
2023/08/30 08:32:08;;;;;;;3.30;0.88;;;;;;;;;;4978045;28;20061;-87
2023/08/30 08:34:35;;;;;;;1.52;0.70;;;;;;;;;;4979103;28;20537;-87
2023/08/30 08:37:03;;;;;;;0.93;0.52;;;;;;;;;;4980270;28;20078;-87
2023/08/30 08:39:31;;;;;;;2.47;1.10;;;;;;;;;;4997273;28;20058;-87
2023/08/30 08:42:00;;;;;;;4.72;1.27;;;;;;;;;;4984509;28;20050;-87
2023/08/30 08:44:29;;;;;;;6.22;2.10;;;;;;;;;;4980874;28;20065;-88
2023/08/30 08:46:56;;;;;;;2.95;1.27;;;;;;;;;;4978566;28;20070;-86
2023/08/30 08:49:28;;;;;;;1.00;0.93;;;;;;;;;;4979095;28;20084;-88
2023/08/30 08:51:56;;;;;;;3.40;1.38;;;;;;;;;;4979064;28;20058;-89
2023/08/30 08:54:23;;;;;;;2.83;0.93;;;;;;;;;;4978860;28;20050;-88
2023/08/30 08:56:50;;;;;;;1.20;0.73;;;;;;;;;;4979270;28;20058;-93
2023/08/30 08:59:20;;;;;;;1.25;0.80;;;;;;;;;;4978545;28;20439;-89
2023/08/30 09:01:47;;;;;;;1.58;0.57;;;;;;;;;;4978746;28;20112;-94
2023/08/30 09:04:15;;;;;;;1.63;0.70;;;;;;;;;;4978958;28;20077;-88
2023/08/30 09:06:45;;;;;;;0.55;0.55;;;;;;;;;;4978329;28;20054;-88
2023/08/30 09:09:12;;;;;;;0.98;0.43;;;;;;;;;;4978621;28;20050;-88
2023/08/30 09:11:40;;;;;;;2.65;1.02;;;;;;;;;;4978488;28;20450;-88
2023/08/30 09:14:18;;;;;;;1.63;0.80;;;;;;;;;;4979421;28;20046;-87
2023/08/30 09:16:58;;;;;;;0.77;0.73;;;;;;;;;;4978081;28;20462;-87
2023/08/30 09:19:26;;;;;;;5.57;0.80;;;;;;;;;;4978162;28;20097;-88
2023/08/30 09:21:57;;;;;;;0.95;0.70;;;;;;;;;;4978067;28;20054;-87
2023/08/30 09:24:24;;;;;;;3.97;1.23;;;;;;;;;;4977835;28;20046;-88
2023/08/30 09:26:53;;;;;;;4.43;0.90;;;;;;;;;;4977731;28;20074;-87
2023/08/30 09:29:23;;;;;;;3.95;1.35;;;;;;;;;;4977372;28;20105;-87
2023/08/30 09:31:53;;;;;;;1.83;0.75;;;;;;;;;;4976417;28;20514;-87
2023/08/30 09:34:25;;;;;;;4.05;1.00;;;;;;;;;;4977599;28;20065;-86
2023/08/30 09:36:55;;;;;;;1.48;1.38;;;;;;;;;;4977930;28;20379;-88
2023/08/30 09:39:22;;;;;;;2.00;1.02;;;;;;;;;;4977662;28;20054;-91
2023/08/30 09:41:50;;;;;;;3.67;1.60;;;;;;;;;;4977714;28;20061;-87
2023/08/30 09:44:21;;;;;;;4.90;1.88;;;;;;;;;;4976969;28;20050;-93
2023/08/30 09:46:52;;;;;;;13.50;4.60;;;;;;;;;;4977401;28;20046;-88
2023/08/30 09:49:24;;;;;;;4.82;1.70;;;;;;;;;;4977305;28;20113;-88
2023/08/30 09:51:52;;;;;;;1.33;1.00;;;;;;;;;;4977660;28;20105;-88
2023/08/30 09:54:24;;;;;;;1.00;1.00;;;;;;;;;;4977656;28;20103;-88
2023/08/30 09:56:57;;;;;;;2.53;1.30;;;;;;;;;;4977834;28;20108;-88
2023/08/30 09:59:25;;;;;;;1.02;0.98;;;;;;;;;;4977448;28;20046;-90
2023/08/30 10:01:53;;;;;;;0.82;0.70;;;;;;;;;;4977096;28;20054;-89
2023/08/30 10:04:21;;;;;;;2.67;0.90;;;;;;;;;;4977551;28;20072;-88
2023/08/30 10:06:49;;;;;;;1.70;0.85;;;;;;;;;;4994399;28;20105;-90
2023/08/30 10:09:17;;;;;;;3.08;1.00;;;;;;;;;;4993881;28;20043;-88
2023/08/30 10:12:05;;;;;;;2.45;0.73;;;;;;;;;;4979932;28;20056;-88
2023/08/30 10:14:32;;;;;;;2.25;1.00;;;;;;;;;;4977025;28;20396;-88
2023/08/30 10:17:03;;;;;;;1.75;0.60;;;;;;;;;;4977101;28;20495;-88
2023/08/30 10:19:31;;;;;;;1.08;0.70;;;;;;;;;;4977093;28;20489;-88
2023/08/30 10:22:08;;;;;;;1.45;1.35;;;;;;;;;;4994304;28;20458;-88
2023/08/30 10:24:43;;;;;;;1.55;0.65;;;;;;;;;;4976925;28;20058;-88
2023/08/30 10:27:24;;;;;;;0.85;0.85;;;;;;;;;;4978263;28;20526;-89
2023/08/30 10:29:52;;;;;;;1.13;0.88;;;;;;;;;;4994411;28;20046;-89
2023/08/30 10:32:22;;;;;;;0.90;0.80;;;;;;;;;;4994097;28;20054;-89
2023/08/30 10:34:50;;;;;;;1.13;0.80;;;;;;;;;;4976827;28;20053;-90
2023/08/30 10:37:22;;;;;;;4.32;1.10;;;;;;;;;;4977102;28;20054;-87
2023/08/30 10:39:50;;;;;;;1.33;0.90;;;;;;;;;;4979478;28;20078;-89
2023/08/30 10:42:17;;;;;;;1.35;1.10;;;;;;;;;;4977030;28;20113;-89
2023/08/30 10:44:58;;;;;;;0.68;0.68;;;;;;;;;;4976675;28;20054;-88
2023/08/30 10:47:45;;;;;;;2.42;1.00;;;;;;;;;;4979717;28;20056;-88
2023/08/30 10:50:13;;;;;;;1.67;0.70;;;;;;;;;;4977294;28;20557;-89
2023/08/30 10:52:40;;;;;;;3.83;0.80;;;;;;;;;;4994068;28;20160;-90
2023/08/30 10:55:08;;;;;;;0.82;0.82;;;;;;;;;;4976557;28;20487;-89
2023/08/30 10:57:35;;;;;;;0.60;0.60;;;;;;;;;;4997894;28;20050;-89
2023/08/30 11:00:09;;;;;;;3.40;0.70;;;;;;;;;;4981225;28;20116;-86
2023/08/30 11:02:37;;;;;;;1.02;0.50;;;;;;;;;;4980992;28;20462;-89
2023/08/30 11:05:09;;;;;;;0.98;0.55;;;;;;;;;;4980074;28;20473;-89
2023/08/30 11:07:36;;;;;;;1.23;0.60;;;;;;;;;;4979710;28;20055;-89
2023/08/30 11:10:08;;;;;;;2.70;0.70;;;;;;;;;;4979400;28;20101;-89
2023/08/30 11:12:36;;;;;;;1.30;0.80;;;;;;;;;;4997246;28;20062;-92
2023/08/30 11:15:08;;;;;;;6.63;1.17;;;;;;;;;;4981378;28;20057;-90
2023/08/30 11:17:35;;;;;;;0.68;0.68;;;;;;;;;;4981166;28;20054;-91
2023/08/30 11:20:20;;;;;;;0.75;0.57;;;;;;;;;;4981311;28;20066;-89
2023/08/30 11:22:48;;;;;;;1.27;1.00;;;;;;;;;;4980670;28;20418;-89
2023/08/30 11:25:16;;;;;;;4.40;0.80;;;;;;;;;;4987048;28;20042;-90
2023/08/30 11:27:45;;;;;;;0.73;0.70;;;;;;;;;;4992575;28;20417;-91
2023/08/30 11:30:13;;;;;;;1.05;0.80;;;;;;;;;;4983063;28;20486;-90
2023/08/30 11:32:44;;;;;;;0.60;0.60;;;;;;;;;;4981602;28;20054;-88
2023/08/30 11:35:11;;;;;;;0.60;0.60;;;;;;;;;;4980380;28;20088;-91
2023/08/30 11:37:40;;;;;;;2.05;0.60;;;;;;;;;;4980355;28;20406;-90
2023/08/30 11:40:08;;;;;;;1.35;1.08;;;;;;;;;;4980406;28;20113;-89
2023/08/30 11:42:35;;;;;;;1.83;0.70;;;;;;;;;;4980045;28;20415;-89
2023/08/30 11:45:04;;;;;;;3.15;0.80;;;;;;;;;;4980258;28;20050;-92
2023/08/30 11:47:31;;;;;;;1.90;0.63;;;;;;;;;;4979906;28;20054;-90
2023/08/30 11:49:59;;;;;;;1.15;0.98;;;;;;;;;;4980150;28;20053;-88
2023/08/30 11:52:27;;;;;;;1.85;0.90;;;;;;;;;;4980281;28;20099;-91
2023/08/30 11:54:57;;;;;;;3.13;0.88;;;;;;;;;;4981845;28;20049;-95
2023/08/30 11:57:26;;;;;;;2.58;1.35;;;;;;;;;;4980841;28;20054;-89
2023/08/30 11:59:53;;;;;;;1.17;0.90;;;;;;;;;;4980158;28;20076;-90
2023/08/30 12:02:21;;;;;;;2.28;0.73;;;;;;;;;;4979629;28;20054;-92
2023/08/30 12:04:48;;;;;;;1.80;0.73;;;;;;;;;;4980549;28;20053;-89
2023/08/30 12:07:26;;;;;;;1.02;0.90;;;;;;;;;;4979940;28;20046;-88
2023/08/30 12:10:04;;;;;;;2.97;0.80;;;;;;;;;;4980038;28;20050;-89
2023/08/30 12:12:32;;;;;;;2.38;0.93;;;;;;;;;;4980141;28;20058;-89
2023/08/30 12:14:59;;;;;;;0.80;0.80;;;;;;;;;;4979507;28;20054;-90
2023/08/30 12:17:29;;;;;;;1.33;1.00;;;;;;;;;;4980599;28;20074;-88
2023/08/30 12:19:59;;;;;;;1.08;0.98;;;;;;;;;;4979855;28;20050;-89
2023/08/30 12:22:39;;;;;;;1.90;1.08;;;;;;;;;;4980225;28;20054;-90
2023/08/30 12:25:26;;;;;;;1.52;1.30;;;;;;;;;;4979496;28;20498;-90
2023/08/30 12:27:54;;;;;;;1.70;1.20;;;;;;;;;;4981372;28;20112;-88
2023/08/30 12:30:21;;;;;;;1.27;1.20;;;;;;;;;;4980377;28;20042;-88
2023/08/30 12:32:48;;;;;;;3.10;1.33;;;;;;;;;;4996767;28;20061;-91
2023/08/30 12:35:16;;;;;;;1.50;1.30;;;;;;;;;;4979737;28;20087;-88
2023/08/30 12:37:44;;;;;;;1.88;1.45;;;;;;;;;;4979333;28;20141;-94
2023/08/30 12:40:11;;;;;;;1.92;1.23;;;;;;;;;;4979217;28;20074;-89
2023/08/30 12:42:39;;;;;;;1.70;1.60;;;;;;;;;;4979051;28;20058;-89
2023/08/30 12:45:07;;;;;;;3.30;1.40;;;;;;;;;;4979312;28;20296;-90
2023/08/30 12:47:36;;;;;;;4.90;1.80;;;;;;;;;;4978980;28;20054;-93
2023/08/30 12:50:03;;;;;;;10.13;1.98;;;;;;;;;;4979296;28;20074;-89
2023/08/30 12:52:31;;;;;;;2.03;1.50;;;;;;;;;;4979194;28;20062;-89
2023/08/30 12:54:58;;;;;;;1.88;1.73;;;;;;;;;;4979500;28;20077;-89
2023/08/30 12:57:26;;;;;;;2.72;1.50;;;;;;;;;;4979127;28;20105;-90
2023/08/30 12:59:53;;;;;;;1.73;1.63;;;;;;;;;;4979128;28;20050;-90
2023/08/30 13:02:22;;;;;;;4.47;1.40;;;;;;;;;;4979418;28;20054;-90
2023/08/30 13:04:49;;;;;;;3.80;1.83;;;;;;;;;;4979613;28;20050;-87
2023/08/30 13:07:17;;;;;;;2.15;1.70;;;;;;;;;;4977773;28;20415;-92
2023/08/30 13:09:44;;;;;;;6.28;2.20;;;;;;;;;;4979321;28;20478;-89
2023/08/30 13:12:11;;;;;;;1.60;1.45;;;;;;;;;;4978935;28;20058;-88
2023/08/30 13:14:39;;;;;;;4.82;1.98;;;;;;;;;;4979059;28;20433;-89
2023/08/30 13:17:06;;;;;;;10.50;2.28;;;;;;;;;;4979054;28;20054;-88
2023/08/30 13:19:34;;;;;;;2.92;1.80;;;;;;;;;;4978701;28;20054;-90
2023/08/30 13:22:01;;;;;;;1.70;1.58;;;;;;;;;;4978704;28;20050;-89
2023/08/30 13:24:30;;;;;;;1.70;1.60;;;;;;;;;;4978797;28;20459;-89
2023/08/30 13:26:57;;;;;;;1.85;1.73;;;;;;;;;;4978274;28;20050;-89
2023/08/30 13:29:24;;;;;;;2.78;1.42;;;;;;;;;;4978714;28;20050;-88
2023/08/30 13:31:51;;;;;;;2.33;1.70;;;;;;;;;;4978438;28;20088;-92
2023/08/30 13:34:19;;;;;;;3.22;1.85;;;;;;;;;;4978370;28;20053;-88
2023/08/30 13:36:46;;;;;;;1.58;1.48;;;;;;;;;;4978282;28;20104;-90
2023/08/30 13:39:14;;;;;;;1.60;1.50;;;;;;;;;;4978805;28;20088;-93
2023/08/30 13:41:42;;;;;;;1.85;1.52;;;;;;;;;;4962685;28;20051;-88
2023/08/30 13:44:12;;;;;;;2.60;1.70;;;;;;;;;;4978420;28;20062;-91
2023/08/30 13:46:39;;;;;;;1.65;1.55;;;;;;;;;;4978893;28;20557;-89
2023/08/30 13:49:07;;;;;;;3.22;1.67;;;;;;;;;;4978304;28;20495;-90
2023/08/30 13:51:34;;;;;;;2.65;1.70;;;;;;;;;;4978133;28;20065;-89
2023/08/30 13:54:01;;;;;;;2.58;1.80;;;;;;;;;;4978090;28;20066;-89
2023/08/30 13:56:28;;;;;;;2.10;1.90;;;;;;;;;;4978025;28;20047;-89
2023/08/30 13:58:57;;;;;;;1.70;1.60;;;;;;;;;;4978728;28;20061;-89
2023/08/30 14:01:25;;;;;;;2.00;1.90;;;;;;;;;;4978141;28;20414;-90
2023/08/30 14:03:52;;;;;;;2.25;2.15;;;;;;;;;;4995316;28;20054;-91
2023/08/30 14:06:19;;;;;;;5.13;2.25;;;;;;;;;;4995148;28;20503;-88
2023/08/30 14:08:46;;;;;;;1.95;1.77;;;;;;;;;;4995701;28;20054;-90
2023/08/30 14:11:14;;;;;;;2.70;2.50;;;;;;;;;;4983097;28;20054;-89
2023/08/30 14:13:42;;;;;;;2.30;2.13;;;;;;;;;;4990823;28;20046;-89
2023/08/30 14:16:10;;;;;;;2.10;1.98;;;;;;;;;;5000679;28;20059;-90
2023/08/30 14:18:37;;;;;;;5.13;2.08;;;;;;;;;;4981302;28;20054;-92
2023/08/30 14:21:05;;;;;;;5.22;2.60;;;;;;;;;;4977580;28;20042;-90
2023/08/30 14:23:32;;;;;;;4.30;2.20;;;;;;;;;;4994496;28;20061;-91
2023/08/30 14:26:00;;;;;;;2.35;2.20;;;;;;;;;;4994845;28;20100;-89
2023/08/30 14:28:27;;;;;;;2.15;2.00;;;;;;;;;;4994276;28;20057;-89
2023/08/30 14:30:55;;;;;;;2.17;2.08;;;;;;;;;;4976552;28;20554;-90
2023/08/30 14:33:22;;;;;;;2.58;2.20;;;;;;;;;;4977310;28;20129;-89
2023/08/30 14:35:49;;;;;;;8.02;2.40;;;;;;;;;;4977147;28;20070;-93
2023/08/30 14:38:16;;;;;;;4.38;2.28;;;;;;;;;;4977296;28;20054;-88
2023/08/30 14:40:55;;;;;;;2.58;1.90;;;;;;;;;;4977379;28;20066;-90
2023/08/30 14:43:22;;;;;;;5.00;2.50;;;;;;;;;;4976431;28;20058;-89
2023/08/30 14:45:50;;;;;;;2.47;2.28;;;;;;;;;;4976798;28;20054;-89
2023/08/30 14:48:33;;;;;;;2.33;1.90;;;;;;;;;;4980491;28;20050;-90